Grantham, United Kingdom
Current Conditions -  °F | °C
As of 9:50 PM on Tuesday 21 Oct 2014 (Local Time) from EGYD Reporting Station
Clear Clear  
Wind Chill: 37°   Ceiling: Unl
Heat Index: 45°   Visibility: 6mi
Dew Point: 34°   Wind: 17mph
Humidity: 66%   Direction: 300°WNW
Pressure: 29.97"   Gusts: NA
Location:  52.92°N, 0.64°W
Report Text: EGYD 212050Z 30015KT CAVOK 07/01 Q1015 BLU
Loading
Personal Weather Stations






























Interactive Weather Map New forecast layout! Learn more

10-Day Weather Forecast

Advertisements
Track Severe Weather on mobile